Time;durP1;ratioP1;P1;durP2;ratioP2;P2;SDS_P1;SDS_P2;PMS_P1;PMS_P2;Temp;Humidity;BMP_temperature;BMP_pressure;BME280_temperature;BME280_humidity;BME280_pressure;Samples;Min_cycle;Max_cycle;Signal;HPM_P1;HPM_P2
2022/02/26 00:01:29;;;;;;;0.40;0.40;;;;;;;;;;5009611;28;20280;-70
2022/02/26 00:03:57;;;;;;;0.00;0.00;;;;;;;;;;5011676;28;20201;-70
2022/02/26 00:06:24;;;;;;;0.00;0.00;;;;;;;;;;5012063;28;20203;-70
2022/02/26 00:08:51;;;;;;;0.00;0.00;;;;;;;;;;5013025;28;20545;-70
2022/02/26 00:11:19;;;;;;;0.00;0.00;;;;;;;;;;5007648;28;20207;-70
2022/02/26 00:13:46;;;;;;;0.00;0.00;;;;;;;;;;5010783;28;20215;-71
2022/02/26 00:16:15;;;;;;;0.00;0.00;;;;;;;;;;5011170;28;20208;-70
2022/02/26 00:18:43;;;;;;;0.00;0.00;;;;;;;;;;5012636;28;20192;-70
2022/02/26 00:21:10;;;;;;;0.00;0.00;;;;;;;;;;5011382;28;20197;-70
2022/02/26 00:23:38;;;;;;;0.00;0.00;;;;;;;;;;5012598;28;20200;-70
2022/02/26 00:26:05;;;;;;;0.00;0.00;;;;;;;;;;5011544;28;20233;-71
2022/02/26 00:28:33;;;;;;;0.00;0.00;;;;;;;;;;5011224;28;20207;-70
2022/02/26 00:31:00;;;;;;;0.00;0.00;;;;;;;;;;5008730;28;20204;-70
2022/02/26 00:33:29;;;;;;;0.00;0.00;;;;;;;;;;5011275;28;20595;-70
2022/02/26 00:35:58;;;;;;;0.00;0.00;;;;;;;;;;5013488;28;20680;-70
2022/02/26 00:38:26;;;;;;;0.00;0.00;;;;;;;;;;5017951;28;20232;-69
2022/02/26 00:40:53;;;;;;;0.00;0.00;;;;;;;;;;5010470;28;20427;-73
2022/02/26 00:43:21;;;;;;;0.00;0.00;;;;;;;;;;5010361;28;20213;-71
2022/02/26 00:45:48;;;;;;;0.00;0.00;;;;;;;;;;5011962;28;20695;-70
2022/02/26 00:48:16;;;;;;;0.00;0.00;;;;;;;;;;5010433;28;20201;-72
2022/02/26 00:50:44;;;;;;;0.00;0.00;;;;;;;;;;5010002;28;20212;-70
2022/02/26 00:53:11;;;;;;;0.00;0.00;;;;;;;;;;5007373;28;20305;-71
2022/02/26 00:55:38;;;;;;;0.00;0.00;;;;;;;;;;5015567;28;20205;-70
2022/02/26 00:58:06;;;;;;;0.00;0.00;;;;;;;;;;5014412;28;20201;-71
2022/02/26 01:00:33;;;;;;;0.00;0.00;;;;;;;;;;5010174;28;20609;-71
2022/02/26 01:03:00;;;;;;;0.00;0.00;;;;;;;;;;5011250;28;20299;-71
2022/02/26 01:05:28;;;;;;;0.10;0.10;;;;;;;;;;5009872;28;20200;-70
2022/02/26 01:07:56;;;;;;;0.00;0.00;;;;;;;;;;5009933;28;20208;-71
2022/02/26 01:10:24;;;;;;;0.00;0.00;;;;;;;;;;5012027;28;20220;-71
2022/02/26 01:12:51;;;;;;;0.00;0.00;;;;;;;;;;5009555;28;20201;-70
2022/02/26 01:15:18;;;;;;;0.00;0.00;;;;;;;;;;5010914;28;20193;-70
2022/02/26 01:17:46;;;;;;;0.00;0.00;;;;;;;;;;5012148;28;20204;-70
2022/02/26 01:20:13;;;;;;;0.20;0.20;;;;;;;;;;5013052;28;20303;-70
2022/02/26 01:22:41;;;;;;;0.00;0.00;;;;;;;;;;5011051;28;20565;-70
2022/02/26 01:25:10;;;;;;;0.00;0.00;;;;;;;;;;5010497;28;20197;-72
2022/02/26 01:27:39;;;;;;;0.00;0.00;;;;;;;;;;5010388;28;20205;-70
2022/02/26 01:30:07;;;;;;;0.00;0.00;;;;;;;;;;5009605;28;20228;-71
2022/02/26 01:32:35;;;;;;;0.00;0.00;;;;;;;;;;5011047;28;20201;-72
2022/02/26 01:35:02;;;;;;;2.03;2.00;;;;;;;;;;5011501;28;20584;-71
2022/02/26 01:37:30;;;;;;;0.00;0.00;;;;;;;;;;5011221;28;20208;-72
2022/02/26 01:39:57;;;;;;;0.00;0.00;;;;;;;;;;5012394;28;20238;-70
2022/02/26 01:42:26;;;;;;;0.00;0.00;;;;;;;;;;5009445;28;22102;-70
2022/02/26 01:44:54;;;;;;;0.00;0.00;;;;;;;;;;5009118;28;20204;-70
2022/02/26 01:47:21;;;;;;;0.00;0.00;;;;;;;;;;5008217;28;20753;-70
2022/02/26 01:49:49;;;;;;;0.00;0.00;;;;;;;;;;5009728;28;20200;-70
2022/02/26 01:52:17;;;;;;;0.27;0.27;;;;;;;;;;5008176;28;20208;-72
2022/02/26 01:54:46;;;;;;;0.00;0.00;;;;;;;;;;5011983;28;20286;-74
2022/02/26 01:57:13;;;;;;;0.00;0.00;;;;;;;;;;5011353;28;20207;-71
2022/02/26 01:59:42;;;;;;;0.00;0.00;;;;;;;;;;5010660;28;20216;-71
2022/02/26 02:02:09;;;;;;;0.00;0.00;;;;;;;;;;5009716;28;20208;-70
2022/02/26 02:04:37;;;;;;;0.00;0.00;;;;;;;;;;5009887;28;20204;-70
2022/02/26 02:07:04;;;;;;;0.00;0.00;;;;;;;;;;5008739;28;20196;-71
2022/02/26 02:09:32;;;;;;;0.13;0.13;;;;;;;;;;5009976;28;20255;-71
2022/02/26 02:11:59;;;;;;;0.00;0.00;;;;;;;;;;5012150;28;20200;-72
2022/02/26 02:14:27;;;;;;;0.00;0.00;;;;;;;;;;5013844;28;20577;-70
2022/02/26 02:16:56;;;;;;;0.00;0.00;;;;;;;;;;5012033;28;20208;-70
2022/02/26 02:19:26;;;;;;;0.00;0.00;;;;;;;;;;5010781;28;20197;-70
2022/02/26 02:21:54;;;;;;;0.10;0.10;;;;;;;;;;5010583;28;20212;-70
2022/02/26 02:24:23;;;;;;;0.00;0.00;;;;;;;;;;5008391;28;20201;-70
2022/02/26 02:26:50;;;;;;;0.00;0.00;;;;;;;;;;5014707;28;21006;-69
2022/02/26 02:29:17;;;;;;;0.93;0.93;;;;;;;;;;5011067;28;20685;-70
2022/02/26 02:31:45;;;;;;;0.00;0.00;;;;;;;;;;5009662;28;20752;-71
2022/02/26 02:34:12;;;;;;;0.13;0.13;;;;;;;;;;5009046;28;20659;-71
2022/02/26 02:36:43;;;;;;;0.00;0.00;;;;;;;;;;5013440;28;20204;-70
2022/02/26 02:39:10;;;;;;;0.00;0.00;;;;;;;;;;5017421;28;20236;-70
2022/02/26 02:41:39;;;;;;;0.00;0.00;;;;;;;;;;5009211;28;20229;-70
2022/02/26 02:44:09;;;;;;;0.00;0.00;;;;;;;;;;5009969;28;20284;-70
2022/02/26 02:46:36;;;;;;;0.00;0.00;;;;;;;;;;5018263;28;20569;-70
2022/02/26 02:49:04;;;;;;;0.00;0.00;;;;;;;;;;5018957;28;20205;-70
2022/02/26 02:51:31;;;;;;;0.00;0.00;;;;;;;;;;5018456;28;20536;-70
2022/02/26 02:53:58;;;;;;;0.00;0.00;;;;;;;;;;5027306;28;20200;-71
2022/02/26 02:56:26;;;;;;;0.13;0.13;;;;;;;;;;5016157;28;20203;-72
2022/02/26 02:58:55;;;;;;;0.00;0.00;;;;;;;;;;5012671;28;20197;-70
2022/02/26 03:01:23;;;;;;;0.00;0.00;;;;;;;;;;5013985;28;20228;-70
2022/02/26 03:03:51;;;;;;;0.00;0.00;;;;;;;;;;5012954;28;20205;-70
2022/02/26 03:06:18;;;;;;;0.00;0.00;;;;;;;;;;5012185;28;20197;-72
2022/02/26 03:08:46;;;;;;;0.00;0.00;;;;;;;;;;5022974;28;20212;-71
2022/02/26 03:11:15;;;;;;;0.00;0.00;;;;;;;;;;5026215;28;20280;-70
2022/02/26 03:13:45;;;;;;;0.00;0.00;;;;;;;;;;5016670;28;20205;-70
2022/02/26 03:16:15;;;;;;;0.00;0.00;;;;;;;;;;5013808;28;20211;-70
2022/02/26 03:18:43;;;;;;;0.00;0.00;;;;;;;;;;5018071;28;20204;-70
2022/02/26 03:21:10;;;;;;;0.00;0.00;;;;;;;;;;5012988;28;20320;-70
2022/02/26 03:23:37;;;;;;;0.00;0.00;;;;;;;;;;5018179;28;20196;-70
2022/02/26 03:26:05;;;;;;;0.00;0.00;;;;;;;;;;5015020;28;20230;-72
2022/02/26 03:28:32;;;;;;;0.00;0.00;;;;;;;;;;5018926;28;20633;-70
2022/02/26 03:31:00;;;;;;;0.00;0.00;;;;;;;;;;5013163;28;20193;-70
2022/02/26 03:33:28;;;;;;;0.10;0.10;;;;;;;;;;5021225;28;20196;-70
2022/02/26 03:35:56;;;;;;;0.00;0.00;;;;;;;;;;5016389;28;20287;-70
2022/02/26 03:38:23;;;;;;;0.00;0.00;;;;;;;;;;5021113;28;20705;-70
2022/02/26 03:40:50;;;;;;;0.00;0.00;;;;;;;;;;5012700;28;20743;-71
2022/02/26 03:43:18;;;;;;;0.17;0.17;;;;;;;;;;5012492;28;20193;-71
2022/02/26 03:45:45;;;;;;;0.00;0.00;;;;;;;;;;5012784;28;20223;-71
2022/02/26 03:48:13;;;;;;;0.00;0.00;;;;;;;;;;5016271;28;20200;-70
2022/02/26 03:50:43;;;;;;;0.00;0.00;;;;;;;;;;5013212;28;20209;-70
2022/02/26 03:53:11;;;;;;;0.00;0.00;;;;;;;;;;5020992;28;20299;-69
2022/02/26 03:55:38;;;;;;;0.00;0.00;;;;;;;;;;5013310;28;20213;-70
2022/02/26 03:58:07;;;;;;;0.00;0.00;;;;;;;;;;5012046;28;20197;-70
2022/02/26 04:00:34;;;;;;;0.00;0.00;;;;;;;;;;5018464;28;20225;-70
2022/02/26 04:03:02;;;;;;;0.00;0.00;;;;;;;;;;5012082;28;20197;-70
2022/02/26 04:05:29;;;;;;;0.00;0.00;;;;;;;;;;5023788;28;20283;-71
2022/02/26 04:07:58;;;;;;;0.00;0.00;;;;;;;;;;5013195;28;20817;-70
2022/02/26 04:10:25;;;;;;;0.00;0.00;;;;;;;;;;5009708;28;20201;-72
2022/02/26 04:12:53;;;;;;;0.10;0.10;;;;;;;;;;5014727;28;20197;-70
2022/02/26 04:15:20;;;;;;;0.00;0.00;;;;;;;;;;5011856;28;20229;-70
2022/02/26 04:17:47;;;;;;;0.00;0.00;;;;;;;;;;5016504;28;20263;-70
2022/02/26 04:20:15;;;;;;;0.43;0.43;;;;;;;;;;5009868;28;20258;-69
2022/02/26 04:22:42;;;;;;;0.00;0.00;;;;;;;;;;5012580;28;20209;-71
2022/02/26 04:25:11;;;;;;;0.00;0.00;;;;;;;;;;5013563;28;20229;-71
2022/02/26 04:27:38;;;;;;;0.00;0.00;;;;;;;;;;5012144;28;20205;-71
2022/02/26 04:30:06;;;;;;;0.00;0.00;;;;;;;;;;5010901;28;20262;-70
2022/02/26 04:32:34;;;;;;;0.00;0.00;;;;;;;;;;5010881;28;20207;-72
2022/02/26 04:35:01;;;;;;;0.00;0.00;;;;;;;;;;5012135;28;20206;-70
2022/02/26 04:37:28;;;;;;;0.00;0.00;;;;;;;;;;5012807;28;20197;-69
2022/02/26 04:39:56;;;;;;;0.00;0.00;;;;;;;;;;5009880;28;20235;-69
2022/02/26 04:42:24;;;;;;;0.00;0.00;;;;;;;;;;5009200;28;21414;-69
2022/02/26 04:44:52;;;;;;;0.00;0.00;;;;;;;;;;5009494;28;20230;-70
2022/02/26 04:47:19;;;;;;;0.00;0.00;;;;;;;;;;5009093;28;20201;-70
2022/02/26 04:49:47;;;;;;;0.00;0.00;;;;;;;;;;5011289;28;20549;-69
2022/02/26 04:52:14;;;;;;;0.00;0.00;;;;;;;;;;5009136;28;20963;-69
2022/02/26 04:54:41;;;;;;;0.00;0.00;;;;;;;;;;5011157;28;20228;-70
2022/02/26 04:57:09;;;;;;;0.00;0.00;;;;;;;;;;5010890;28;20207;-69
2022/02/26 04:59:37;;;;;;;0.00;0.00;;;;;;;;;;5011380;28;20201;-69
2022/02/26 05:02:05;;;;;;;0.00;0.00;;;;;;;;;;5010095;28;20239;-70
2022/02/26 05:04:32;;;;;;;0.00;0.00;;;;;;;;;;5012091;28;20231;-69
2022/02/26 05:07:00;;;;;;;0.03;0.03;;;;;;;;;;5016571;28;20201;-69
2022/02/26 05:09:27;;;;;;;0.00;0.00;;;;;;;;;;5011697;28;20204;-68
2022/02/26 05:11:54;;;;;;;0.00;0.00;;;;;;;;;;5011136;28;20197;-69
2022/02/26 05:14:22;;;;;;;0.00;0.00;;;;;;;;;;5022957;28;20203;-69
2022/02/26 05:16:50;;;;;;;0.00;0.00;;;;;;;;;;5015385;28;20208;-69
2022/02/26 05:19:18;;;;;;;0.00;0.00;;;;;;;;;;5010338;28;20197;-69
2022/02/26 05:21:45;;;;;;;0.00;0.00;;;;;;;;;;5014600;28;20232;-72
2022/02/26 05:24:12;;;;;;;0.00;0.00;;;;;;;;;;5012960;28;20210;-71
2022/02/26 05:26:43;;;;;;;0.00;0.00;;;;;;;;;;5011326;28;20200;-72
2022/02/26 05:29:10;;;;;;;0.00;0.00;;;;;;;;;;5012310;28;20192;-69
2022/02/26 05:31:38;;;;;;;0.00;0.00;;;;;;;;;;5010887;28;20207;-71
2022/02/26 05:34:06;;;;;;;0.00;0.00;;;;;;;;;;5009890;28;20209;-72
2022/02/26 05:36:34;;;;;;;0.00;0.00;;;;;;;;;;5014674;28;20188;-72
2022/02/26 05:39:01;;;;;;;0.00;0.00;;;;;;;;;;5007766;28;20789;-72
2022/02/26 05:41:32;;;;;;;0.00;0.00;;;;;;;;;;5012171;28;20232;-70
2022/02/26 05:43:59;;;;;;;0.10;0.10;;;;;;;;;;5011190;28;20246;-71
2022/02/26 05:46:27;;;;;;;0.00;0.00;;;;;;;;;;5008011;28;20204;-71
2022/02/26 05:48:54;;;;;;;0.00;0.00;;;;;;;;;;5011238;28;20200;-72
2022/02/26 05:51:23;;;;;;;0.00;0.00;;;;;;;;;;5009060;28;20558;-70
2022/02/26 05:53:50;;;;;;;0.00;0.00;;;;;;;;;;5009391;28;20212;-71
2022/02/26 05:56:18;;;;;;;0.00;0.00;;;;;;;;;;5011251;28;20202;-70
2022/02/26 05:58:45;;;;;;;0.00;0.00;;;;;;;;;;5009808;28;20681;-71
2022/02/26 06:01:12;;;;;;;0.00;0.00;;;;;;;;;;5008757;28;20225;-70
2022/02/26 06:03:40;;;;;;;0.37;0.37;;;;;;;;;;5008731;28;20574;-69
2022/02/26 06:06:07;;;;;;;0.00;0.00;;;;;;;;;;5009334;28;20201;-71
2022/02/26 06:08:36;;;;;;;0.00;0.00;;;;;;;;;;5011263;28;20192;-71
2022/02/26 06:11:03;;;;;;;0.00;0.00;;;;;;;;;;5009586;28;20683;-70
2022/02/26 06:13:31;;;;;;;0.00;0.00;;;;;;;;;;5010084;28;20557;-70
2022/02/26 06:15:58;;;;;;;0.00;0.00;;;;;;;;;;5010080;28;20204;-70
2022/02/26 06:18:26;;;;;;;0.27;0.27;;;;;;;;;;5009774;28;20205;-71
2022/02/26 06:20:54;;;;;;;0.00;0.00;;;;;;;;;;5009920;28;20223;-72
2022/02/26 06:23:21;;;;;;;0.00;0.00;;;;;;;;;;5011066;28;20582;-70
2022/02/26 06:25:50;;;;;;;1.70;1.60;;;;;;;;;;5010957;28;20204;-70
2022/02/26 06:28:17;;;;;;;0.00;0.00;;;;;;;;;;5014717;28;20372;-70
2022/02/26 06:30:45;;;;;;;0.00;0.00;;;;;;;;;;5010848;28;20208;-74
2022/02/26 06:33:13;;;;;;;0.00;0.00;;;;;;;;;;5015321;28;20208;-70
2022/02/26 06:35:41;;;;;;;0.10;0.10;;;;;;;;;;5010269;28;20287;-70
2022/02/26 06:38:09;;;;;;;0.00;0.00;;;;;;;;;;5014822;28;20208;-71
2022/02/26 06:40:36;;;;;;;0.00;0.00;;;;;;;;;;5014455;28;20669;-71
2022/02/26 06:43:05;;;;;;;0.00;0.00;;;;;;;;;;5015287;28;20224;-70
2022/02/26 06:45:46;;;;;;;0.00;0.00;;;;;;;;;;5011967;28;20258;-72
2022/02/26 06:48:14;;;;;;;0.20;0.20;;;;;;;;;;5016352;28;20200;-71
2022/02/26 06:50:41;;;;;;;0.00;0.00;;;;;;;;;;5012250;28;20196;-71
2022/02/26 06:53:17;;;;;;;1.70;1.53;;;;;;;;;;5014257;28;20201;-73
2022/02/26 06:55:51;;;;;;;0.00;0.00;;;;;;;;;;5015275;28;20215;-72
2022/02/26 06:58:29;;;;;;;0.00;0.00;;;;;;;;;;5013206;28;20291;-70
2022/02/26 07:00:56;;;;;;;0.00;0.00;;;;;;;;;;5012054;28;20261;-72
2022/02/26 07:03:23;;;;;;;0.00;0.00;;;;;;;;;;5009854;28;20213;-71
2022/02/26 07:05:51;;;;;;;0.00;0.00;;;;;;;;;;5012429;28;20205;-70
2022/02/26 07:08:18;;;;;;;0.00;0.00;;;;;;;;;;5011440;28;20208;-70
2022/02/26 07:10:45;;;;;;;0.00;0.00;;;;;;;;;;5012739;28;20212;-72
2022/02/26 07:13:13;;;;;;;0.43;0.43;;;;;;;;;;5012601;28;20200;-72
2022/02/26 07:15:41;;;;;;;0.00;0.00;;;;;;;;;;5014927;28;20212;-71
2022/02/26 07:18:10;;;;;;;0.00;0.00;;;;;;;;;;5011157;28;20204;-71
2022/02/26 07:20:37;;;;;;;0.10;0.10;;;;;;;;;;5013973;28;20768;-71
2022/02/26 07:23:05;;;;;;;0.07;0.07;;;;;;;;;;5008857;28;20700;-71
2022/02/26 07:25:33;;;;;;;0.00;0.00;;;;;;;;;;5012671;28;20621;-70
2022/02/26 07:28:00;;;;;;;0.00;0.00;;;;;;;;;;5014709;28;20204;-70
2022/02/26 07:30:27;;;;;;;0.20;0.20;;;;;;;;;;5014606;28;20197;-70
2022/02/26 07:32:56;;;;;;;0.73;0.67;;;;;;;;;;5010485;28;20205;-73
2022/02/26 07:35:24;;;;;;;1.17;0.60;;;;;;;;;;5012877;28;20215;-72
2022/02/26 07:37:51;;;;;;;0.10;0.10;;;;;;;;;;5009216;28;20205;-71
2022/02/26 07:40:18;;;;;;;0.00;0.00;;;;;;;;;;5012045;28;20236;-71
2022/02/26 07:42:48;;;;;;;0.00;0.00;;;;;;;;;;5013140;28;20239;-71
2022/02/26 07:45:15;;;;;;;0.00;0.00;;;;;;;;;;5013693;28;20663;-71
2022/02/26 07:47:43;;;;;;;0.00;0.00;;;;;;;;;;5013370;28;20208;-73
2022/02/26 07:50:12;;;;;;;0.00;0.00;;;;;;;;;;5016893;28;20205;-72
2022/02/26 07:52:39;;;;;;;0.00;0.00;;;;;;;;;;5016997;28;20207;-72
2022/02/26 07:55:08;;;;;;;0.00;0.00;;;;;;;;;;5011119;28;20970;-71
2022/02/26 07:57:35;;;;;;;0.00;0.00;;;;;;;;;;5009485;28;20205;-72
2022/02/26 08:00:03;;;;;;;0.00;0.00;;;;;;;;;;5011401;28;20681;-72
2022/02/26 08:02:30;;;;;;;0.23;0.23;;;;;;;;;;5013608;28;20236;-69
2022/02/26 08:04:57;;;;;;;0.00;0.00;;;;;;;;;;5010872;28;20201;-75
2022/02/26 08:07:26;;;;;;;0.00;0.00;;;;;;;;;;5015015;28;20200;-72
2022/02/26 08:09:53;;;;;;;0.50;0.50;;;;;;;;;;5015211;28;20208;-72
2022/02/26 08:12:21;;;;;;;0.43;0.43;;;;;;;;;;5012966;28;20196;-72
2022/02/26 08:14:48;;;;;;;1.33;1.23;;;;;;;;;;5015637;28;20207;-72
2022/02/26 08:17:16;;;;;;;2.43;0.90;;;;;;;;;;5012718;28;20200;-70
2022/02/26 08:19:43;;;;;;;3.70;3.50;;;;;;;;;;5013360;28;20204;-68
2022/02/26 08:22:10;;;;;;;0.00;0.00;;;;;;;;;;5013097;28;20243;-70
2022/02/26 08:24:39;;;;;;;1.17;1.17;;;;;;;;;;5017103;28;20574;-72
2022/02/26 08:27:12;;;;;;;0.20;0.20;;;;;;;;;;5013309;28;20207;-68
2022/02/26 08:29:41;;;;;;;0.23;0.23;;;;;;;;;;5013606;28;20253;-73
2022/02/26 08:32:09;;;;;;;2.37;2.27;;;;;;;;;;5010869;28;20204;-72
2022/02/26 08:34:36;;;;;;;2.77;1.13;;;;;;;;;;5019530;28;20206;-72
2022/02/26 08:37:04;;;;;;;0.00;0.00;;;;;;;;;;5020987;28;20585;-71
2022/02/26 08:39:31;;;;;;;0.73;0.73;;;;;;;;;;5020015;28;20236;-71
2022/02/26 08:42:01;;;;;;;1.70;1.60;;;;;;;;;;5019846;28;20228;-71
2022/02/26 08:44:28;;;;;;;0.00;0.00;;;;;;;;;;5020552;28;20220;-70
2022/02/26 08:46:56;;;;;;;0.53;0.53;;;;;;;;;;5020724;28;20576;-72
2022/02/26 08:49:23;;;;;;;1.10;1.10;;;;;;;;;;5015142;28;20224;-70
2022/02/26 08:51:50;;;;;;;0.10;0.10;;;;;;;;;;5019351;28;20657;-70
2022/02/26 08:54:18;;;;;;;0.70;0.70;;;;;;;;;;5021031;28;20193;-70
2022/02/26 08:56:45;;;;;;;0.13;0.13;;;;;;;;;;5018088;28;20196;-72
2022/02/26 08:59:14;;;;;;;1.10;1.10;;;;;;;;;;5019726;28;20201;-72
2022/02/26 09:01:41;;;;;;;1.73;1.63;;;;;;;;;;5017719;28;20291;-70
2022/02/26 09:04:09;;;;;;;0.30;0.30;;;;;;;;;;5019227;28;20211;-70
2022/02/26 09:06:37;;;;;;;0.10;0.10;;;;;;;;;;5019803;28;20215;-69
2022/02/26 09:09:07;;;;;;;0.67;0.67;;;;;;;;;;5030792;28;20208;-69
2022/02/26 09:11:35;;;;;;;0.73;0.50;;;;;;;;;;5024922;28;20205;-70
2022/02/26 09:14:03;;;;;;;1.57;1.47;;;;;;;;;;5017851;28;20209;-72
2022/02/26 09:16:32;;;;;;;2.40;1.47;;;;;;;;;;5018134;28;20197;-71
2022/02/26 09:18:59;;;;;;;4.37;2.57;;;;;;;;;;5022239;28;20200;-70
2022/02/26 09:21:26;;;;;;;7.03;6.50;;;;;;;;;;5019402;28;20222;-70
2022/02/26 09:23:54;;;;;;;1.77;1.33;;;;;;;;;;5019659;28;20250;-71
2022/02/26 09:26:21;;;;;;;0.97;0.97;;;;;;;;;;5017085;28;20706;-70
2022/02/26 09:28:49;;;;;;;2.20;2.07;;;;;;;;;;5020615;28;20203;-70
2022/02/26 09:31:17;;;;;;;1.17;1.07;;;;;;;;;;5020232;28;20197;-71
2022/02/26 09:33:47;;;;;;;1.50;0.57;;;;;;;;;;5017493;28;20327;-71
2022/02/26 09:36:15;;;;;;;3.47;3.20;;;;;;;;;;5019111;28;20205;-72
2022/02/26 09:38:43;;;;;;;0.53;0.53;;;;;;;;;;5019664;28;20232;-71
2022/02/26 09:41:11;;;;;;;0.97;0.97;;;;;;;;;;5020714;28;20204;-71
2022/02/26 09:43:39;;;;;;;0.30;0.30;;;;;;;;;;5019160;28;20323;-70
2022/02/26 09:46:07;;;;;;;0.00;0.00;;;;;;;;;;5021003;28;20677;-71
2022/02/26 09:48:35;;;;;;;4.63;3.47;;;;;;;;;;5021743;28;20207;-71
2022/02/26 09:51:04;;;;;;;1.90;0.90;;;;;;;;;;5018588;28;20196;-71
2022/02/26 09:53:32;;;;;;;3.13;2.80;;;;;;;;;;5018461;28;20242;-71
2022/02/26 09:56:00;;;;;;;7.03;2.20;;;;;;;;;;5018807;28;20195;-71
2022/02/26 09:58:27;;;;;;;0.10;0.10;;;;;;;;;;5018268;28;20192;-70
2022/02/26 10:00:54;;;;;;;1.57;1.47;;;;;;;;;;5018832;28;20219;-71
2022/02/26 10:03:30;;;;;;;0.20;0.13;;;;;;;;;;5025124;28;20228;-73
2022/02/26 10:06:08;;;;;;;0.00;0.00;;;;;;;;;;5024017;28;20205;-69
2022/02/26 10:08:40;;;;;;;0.30;0.30;;;;;;;;;;5012292;28;20214;-71
2022/02/26 10:11:08;;;;;;;0.30;0.30;;;;;;;;;;5007252;28;20220;-71
2022/02/26 10:13:45;;;;;;;0.30;0.30;;;;;;;;;;5010347;28;20200;-69
2022/02/26 10:16:12;;;;;;;1.60;0.83;;;;;;;;;;5009157;28;20594;-70
2022/02/26 10:18:39;;;;;;;0.67;0.67;;;;;;;;;;5011924;28;20212;-69
2022/02/26 10:21:08;;;;;;;0.63;0.63;;;;;;;;;;5010799;28;20204;-69
2022/02/26 10:23:45;;;;;;;1.47;1.13;;;;;;;;;;5011460;28;20271;-70
2022/02/26 10:26:13;;;;;;;2.07;0.57;;;;;;;;;;5018443;28;20200;-69
2022/02/26 10:28:41;;;;;;;3.43;0.90;;;;;;;;;;5013011;28;20209;-72
2022/02/26 10:31:11;;;;;;;0.33;0.33;;;;;;;;;;5009768;28;20212;-70
2022/02/26 10:33:39;;;;;;;8.50;2.60;;;;;;;;;;5010691;28;20844;-68
2022/02/26 10:36:10;;;;;;;1.33;1.23;;;;;;;;;;5026915;28;20571;-72
2022/02/26 10:38:38;;;;;;;0.10;0.10;;;;;;;;;;5018806;28;20227;-70
2022/02/26 10:41:07;;;;;;;49.73;2.70;;;;;;;;;;5010883;28;20205;-72
2022/02/26 10:43:46;;;;;;;0.13;0.13;;;;;;;;;;5011141;28;20892;-69
2022/02/26 10:46:21;;;;;;;0.60;0.60;;;;;;;;;;5010805;28;20210;-70
2022/02/26 10:48:49;;;;;;;2.63;1.60;;;;;;;;;;5017833;28;20680;-69
2022/02/26 10:51:19;;;;;;;0.40;0.20;;;;;;;;;;5020421;28;20292;-69
2022/02/26 10:53:46;;;;;;;0.00;0.00;;;;;;;;;;5013928;28;20204;-70
2022/02/26 10:56:14;;;;;;;0.37;0.37;;;;;;;;;;5007985;28;20209;-70
2022/02/26 10:58:42;;;;;;;0.57;0.20;;;;;;;;;;5012753;28;20221;-68
2022/02/26 11:01:10;;;;;;;0.00;0.00;;;;;;;;;;5009824;28;20204;-70
2022/02/26 11:03:39;;;;;;;0.53;0.53;;;;;;;;;;5009217;28;20228;-72
2022/02/26 11:06:08;;;;;;;0.40;0.40;;;;;;;;;;5014933;28;20200;-71
2022/02/26 11:08:37;;;;;;;0.00;0.00;;;;;;;;;;5009270;28;20333;-70
2022/02/26 11:11:05;;;;;;;1.57;0.97;;;;;;;;;;5010599;28;20204;-70
2022/02/26 11:13:33;;;;;;;2.53;0.43;;;;;;;;;;5021113;28;20204;-70
2022/02/26 11:16:02;;;;;;;0.20;0.00;;;;;;;;;;5021305;28;20581;-75
2022/02/26 11:18:35;;;;;;;1.23;1.03;;;;;;;;;;5017450;28;20704;-72
2022/02/26 11:21:02;;;;;;;0.00;0.00;;;;;;;;;;5013525;28;20211;-70
2022/02/26 11:23:30;;;;;;;0.30;0.30;;;;;;;;;;5014724;28;20227;-73
2022/02/26 11:26:00;;;;;;;1.53;1.53;;;;;;;;;;5022434;28;20230;-71
2022/02/26 11:28:28;;;;;;;0.00;0.00;;;;;;;;;;5022750;28;20306;-70
2022/02/26 11:30:57;;;;;;;0.20;0.20;;;;;;;;;;5022607;28;20208;-69
2022/02/26 11:33:25;;;;;;;0.20;0.20;;;;;;;;;;5017843;28;20231;-70
2022/02/26 11:35:53;;;;;;;0.33;0.33;;;;;;;;;;5021842;28;20282;-70
2022/02/26 11:38:22;;;;;;;1.93;1.77;;;;;;;;;;5017838;28;20241;-70
2022/02/26 11:40:50;;;;;;;0.90;0.83;;;;;;;;;;5012797;28;20901;-71
2022/02/26 11:43:35;;;;;;;0.47;0.47;;;;;;;;;;5013248;28;20220;-69
2022/02/26 11:46:17;;;;;;;1.50;1.17;;;;;;;;;;5012802;28;20510;-69
2022/02/26 11:48:47;;;;;;;0.20;0.20;;;;;;;;;;5015045;28;20204;-73
2022/02/26 11:51:15;;;;;;;0.00;0.00;;;;;;;;;;5020102;28;20282;-70
2022/02/26 11:53:43;;;;;;;0.37;0.37;;;;;;;;;;5018609;28;20233;-70
2022/02/26 11:56:11;;;;;;;0.00;0.00;;;;;;;;;;5020507;28;20208;-70
2022/02/26 11:58:39;;;;;;;0.10;0.10;;;;;;;;;;5026102;28;20207;-69
2022/02/26 12:01:07;;;;;;;1.13;1.00;;;;;;;;;;5020673;28;20192;-71
2022/02/26 12:03:36;;;;;;;0.30;0.30;;;;;;;;;;5013919;28;20224;-70
2022/02/26 12:06:21;;;;;;;0.40;0.30;;;;;;;;;;5021900;28;20196;-74
2022/02/26 12:08:51;;;;;;;0.57;0.47;;;;;;;;;;5024775;28;20208;-70
2022/02/26 12:11:33;;;;;;;0.00;0.00;;;;;;;;;;5024490;28;20293;-70
2022/02/26 12:14:05;;;;;;;0.93;0.33;;;;;;;;;;5023761;28;20200;-70
2022/02/26 12:16:35;;;;;;;0.37;0.37;;;;;;;;;;5026393;28;20207;-70
2022/02/26 12:19:04;;;;;;;0.37;0.27;;;;;;;;;;5020504;28;20282;-70
2022/02/26 12:21:34;;;;;;;0.83;0.80;;;;;;;;;;5018875;28;20196;-70
2022/02/26 12:24:13;;;;;;;0.00;0.00;;;;;;;;;;5016341;28;20701;-70
2022/02/26 12:26:48;;;;;;;0.77;0.37;;;;;;;;;;5019774;28;21070;-73
2022/02/26 12:29:39;;;;;;;0.50;0.13;;;;;;;;;;5017038;28;20239;-72
2022/02/26 12:32:07;;;;;;;0.53;0.27;;;;;;;;;;5008528;28;20204;-68
2022/02/26 12:34:39;;;;;;;0.10;0.10;;;;;;;;;;5015905;28;20224;-70
2022/02/26 12:37:10;;;;;;;0.50;0.50;;;;;;;;;;5020485;28;20212;-71
2022/02/26 12:39:40;;;;;;;1.00;0.23;;;;;;;;;;5019526;28;20250;-71
2022/02/26 12:42:08;;;;;;;0.00;0.00;;;;;;;;;;5022581;28;20213;-72
2022/02/26 12:44:38;;;;;;;0.23;0.23;;;;;;;;;;5020179;28;20305;-71
2022/02/26 12:47:06;;;;;;;1.03;0.70;;;;;;;;;;5024004;28;20336;-71
2022/02/26 12:49:35;;;;;;;0.00;0.00;;;;;;;;;;5022548;28;20208;-71
2022/02/26 12:52:04;;;;;;;0.00;0.00;;;;;;;;;;5021856;28;20653;-78
2022/02/26 12:54:32;;;;;;;0.00;0.00;;;;;;;;;;5026306;28;20240;-69
2022/02/26 12:57:02;;;;;;;3.67;2.37;;;;;;;;;;5028106;28;20196;-71
2022/02/26 12:59:30;;;;;;;0.87;0.73;;;;;;;;;;5028462;28;20210;-70
2022/02/26 13:01:58;;;;;;;1.33;0.10;;;;;;;;;;5021502;28;20669;-72
2022/02/26 13:04:29;;;;;;;0.00;0.00;;;;;;;;;;5030863;28;20232;-70
2022/02/26 13:06:59;;;;;;;0.00;0.00;;;;;;;;;;5028273;28;20212;-70
2022/02/26 13:09:27;;;;;;;0.10;0.10;;;;;;;;;;5030304;28;20223;-70
2022/02/26 13:11:55;;;;;;;0.77;0.07;;;;;;;;;;5030719;28;20215;-70
2022/02/26 13:14:26;;;;;;;0.00;0.00;;;;;;;;;;5028508;28;20208;-71
2022/02/26 13:16:57;;;;;;;0.50;0.50;;;;;;;;;;5031541;28;20204;-70
2022/02/26 13:19:24;;;;;;;0.00;0.00;;;;;;;;;;5028734;28;20193;-70
2022/02/26 13:21:52;;;;;;;0.00;0.00;;;;;;;;;;5031401;28;20195;-70
2022/02/26 13:24:20;;;;;;;0.57;0.57;;;;;;;;;;5027250;28;20256;-70
2022/02/26 13:26:49;;;;;;;0.30;0.20;;;;;;;;;;5028178;28;20227;-70
2022/02/26 13:29:17;;;;;;;0.17;0.17;;;;;;;;;;5026374;28;20216;-72
2022/02/26 13:31:45;;;;;;;0.00;0.00;;;;;;;;;;5025513;28;20196;-70
2022/02/26 13:34:17;;;;;;;0.00;0.00;;;;;;;;;;5018658;28;20207;-70
2022/02/26 13:36:46;;;;;;;0.00;0.00;;;;;;;;;;5019195;28;20215;-71
2022/02/26 13:39:14;;;;;;;0.00;0.00;;;;;;;;;;5024959;28;20274;-69
2022/02/26 13:41:41;;;;;;;0.00;0.00;;;;;;;;;;5023393;28;20208;-71
2022/02/26 13:44:10;;;;;;;0.10;0.10;;;;;;;;;;5022602;28;20232;-72
2022/02/26 13:46:38;;;;;;;0.40;0.10;;;;;;;;;;5020275;28;20614;-70
2022/02/26 13:49:10;;;;;;;1.33;1.13;;;;;;;;;;5026547;28;20840;-70
2022/02/26 13:51:37;;;;;;;0.00;0.00;;;;;;;;;;5016428;28;21044;-70
2022/02/26 13:54:10;;;;;;;2.37;0.53;;;;;;;;;;5007332;28;20662;-73
2022/02/26 13:56:39;;;;;;;0.17;0.17;;;;;;;;;;5019603;28;20204;-73
2022/02/26 13:59:11;;;;;;;1.23;0.30;;;;;;;;;;5023584;28;20688;-71
2022/02/26 14:01:53;;;;;;;0.00;0.00;;;;;;;;;;5019345;28;20315;-75
2022/02/26 14:04:25;;;;;;;0.20;0.20;;;;;;;;;;5014042;28;20231;-71
2022/02/26 14:06:53;;;;;;;0.40;0.33;;;;;;;;;;5018690;28;20203;-71
2022/02/26 14:09:22;;;;;;;0.20;0.20;;;;;;;;;;5021620;28;20204;-71
2022/02/26 14:11:54;;;;;;;0.37;0.10;;;;;;;;;;5020191;28;20200;-71
2022/02/26 14:14:26;;;;;;;0.10;0.10;;;;;;;;;;5021652;28;20212;-69
2022/02/26 14:16:57;;;;;;;0.10;0.10;;;;;;;;;;5018228;28;20197;-70
2022/02/26 14:19:27;;;;;;;0.30;0.30;;;;;;;;;;5017796;28;20695;-70
2022/02/26 14:21:56;;;;;;;0.53;0.47;;;;;;;;;;5020145;28;20677;-70
2022/02/26 14:24:25;;;;;;;0.07;0.07;;;;;;;;;;5017606;28;20234;-70
2022/02/26 14:26:52;;;;;;;0.30;0.30;;;;;;;;;;5025123;28;20562;-70
2022/02/26 14:29:27;;;;;;;0.00;0.00;;;;;;;;;;5024515;28;20227;-70
2022/02/26 14:31:58;;;;;;;0.00;0.00;;;;;;;;;;5026902;28;20207;-70
2022/02/26 14:34:27;;;;;;;0.10;0.10;;;;;;;;;;5018399;28;20295;-71
2022/02/26 14:36:54;;;;;;;0.23;0.23;;;;;;;;;;5020390;28;20215;-71
2022/02/26 14:39:23;;;;;;;0.00;0.00;;;;;;;;;;5019628;28;20235;-72
2022/02/26 14:41:51;;;;;;;0.17;0.17;;;;;;;;;;5025371;28;20210;-71
2022/02/26 14:44:20;;;;;;;0.60;0.60;;;;;;;;;;5021956;28;20228;-72
2022/02/26 14:46:48;;;;;;;1.30;0.53;;;;;;;;;;5026046;28;20204;-72
2022/02/26 14:49:16;;;;;;;1.23;0.83;;;;;;;;;;5024656;28;20200;-70
2022/02/26 14:51:46;;;;;;;0.57;0.20;;;;;;;;;;5023033;28;20208;-71